createdAt,value
2017-07-19T00:00:51.618Z,22.20
2017-07-19T00:03:19.795Z,22.10
2017-07-19T00:05:47.993Z,22.10
2017-07-19T00:08:16.161Z,22.10
2017-07-19T00:10:44.322Z,22.00
2017-07-19T00:13:12.548Z,22.10
2017-07-19T00:15:40.716Z,22.10
2017-07-19T00:18:09.636Z,22.10
2017-07-19T00:20:37.805Z,22.10
2017-07-19T00:23:05.958Z,22.20
2017-07-19T00:25:34.201Z,22.20
2017-07-19T00:28:02.347Z,22.20
2017-07-19T00:30:30.483Z,22.10
2017-07-19T00:32:58.650Z,22.10
2017-07-19T00:35:26.829Z,22.10
2017-07-19T00:37:55.141Z,21.90
2017-07-19T00:40:23.285Z,21.80
2017-07-19T00:42:51.463Z,21.90
2017-07-19T00:45:19.654Z,22.00
2017-07-19T00:47:47.851Z,21.90
2017-07-19T00:50:16.021Z,21.80
2017-07-19T00:52:44.181Z,21.80
2017-07-19T00:55:12.439Z,21.60
2017-07-19T00:57:40.603Z,21.60
2017-07-19T01:00:08.753Z,21.50
2017-07-19T01:02:36.922Z,21.50
2017-07-19T01:05:05.881Z,21.30
2017-07-19T01:07:34.043Z,21.30
2017-07-19T01:10:02.189Z,21.40
2017-07-19T01:12:30.368Z,21.50
2017-07-19T01:14:58.542Z,21.60
2017-07-19T01:17:26.700Z,21.60
2017-07-19T01:19:54.887Z,21.60
2017-07-19T01:22:24.358Z,21.40
2017-07-19T01:24:52.539Z,21.30
2017-07-19T01:27:20.711Z,21.20
2017-07-19T01:29:48.853Z,21.20
2017-07-19T01:32:17.802Z,21.30
2017-07-19T01:34:46.002Z,21.30
2017-07-19T01:37:14.155Z,21.30
2017-07-19T01:39:42.301Z,21.20
2017-07-19T01:42:10.474Z,21.20
2017-07-19T01:44:38.637Z,21.10
2017-07-19T01:47:06.838Z,21.00
2017-07-19T01:49:35.290Z,21.00
2017-07-19T01:52:03.451Z,20.80
2017-07-19T01:54:32.385Z,20.80
2017-07-19T01:57:00.583Z,20.80
2017-07-19T01:59:28.728Z,20.80
2017-07-19T02:01:56.900Z,20.80
2017-07-19T02:04:25.096Z,20.70
2017-07-19T02:06:53.297Z,20.70
2017-07-19T02:09:21.422Z,20.70
2017-07-19T02:11:49.648Z,20.70
2017-07-19T02:14:18.564Z,20.50
2017-07-19T02:16:46.713Z,20.50
2017-07-19T02:19:15.765Z,20.60
2017-07-19T02:21:43.930Z,20.50
2017-07-19T02:24:12.160Z,20.50
2017-07-19T02:26:41.116Z,20.50
2017-07-19T02:29:09.275Z,20.50
2017-07-19T02:31:37.439Z,20.50
2017-07-19T02:34:05.638Z,20.40
2017-07-19T02:36:33.797Z,20.50
2017-07-19T02:39:01.957Z,20.40
2017-07-19T02:41:30.136Z,20.20
2017-07-19T02:43:58.285Z,20.10
2017-07-19T02:46:26.434Z,19.90
2017-07-19T02:48:54.621Z,19.80
2017-07-19T02:51:22.816Z,19.70
2017-07-19T02:53:51.002Z,19.70
2017-07-19T02:56:19.221Z,19.70
2017-07-19T02:58:48.178Z,19.60
2017-07-19T03:01:16.321Z,19.60
2017-07-19T03:03:44.481Z,19.50
2017-07-19T03:06:12.689Z,19.50
2017-07-19T03:08:40.831Z,19.50
2017-07-19T03:11:08.996Z,19.50
2017-07-19T03:13:37.174Z,19.50
2017-07-19T03:16:05.329Z,19.50
2017-07-19T03:18:34.272Z,19.60
2017-07-19T03:21:02.632Z,19.60
2017-07-19T03:23:30.824Z,19.60
2017-07-19T03:25:58.974Z,19.50
2017-07-19T03:28:27.130Z,19.60
2017-07-19T03:30:55.322Z,19.50
2017-07-19T03:33:23.489Z,19.50
2017-07-19T03:35:51.639Z,19.50
2017-07-19T03:38:19.850Z,19.60
2017-07-19T03:40:48.029Z,19.50
2017-07-19T03:43:16.193Z,19.60
2017-07-19T03:45:44.349Z,19.60
2017-07-19T03:48:12.575Z,19.50
2017-07-19T03:50:40.784Z,19.60
2017-07-19T03:53:09.680Z,19.60
2017-07-19T03:55:37.839Z,19.60
2017-07-19T03:58:06.050Z,19.70
2017-07-19T04:00:34.204Z,19.70
2017-07-19T04:03:02.367Z,19.70
2017-07-19T04:05:30.542Z,19.70
2017-07-19T04:07:58.702Z,19.70
2017-07-19T04:10:27.676Z,19.70
2017-07-19T04:12:55.884Z,19.70
2017-07-19T04:15:24.105Z,19.80
2017-07-19T04:17:52.249Z,19.90
2017-07-19T04:20:20.402Z,20.00
2017-07-19T04:22:48.582Z,20.10
2017-07-19T04:25:16.763Z,20.20
2017-07-19T04:27:44.926Z,20.40
2017-07-19T04:30:13.104Z,20.40
2017-07-19T04:32:41.286Z,20.30
2017-07-19T04:35:09.813Z,20.20
2017-07-19T04:37:37.960Z,20.40
2017-07-19T04:40:06.126Z,20.60
2017-07-19T04:42:34.289Z,20.50
2017-07-19T04:45:02.474Z,20.50
2017-07-19T04:47:30.632Z,20.40
2017-07-19T04:49:58.836Z,20.40
2017-07-19T04:52:26.982Z,20.70
2017-07-19T04:54:55.136Z,21.10
2017-07-19T04:57:23.306Z,21.50
2017-07-19T04:59:51.477Z,21.20
2017-07-19T05:02:19.648Z,21.10
2017-07-19T05:04:47.854Z,21.40
2017-07-19T05:07:16.206Z,22.10
2017-07-19T05:09:44.365Z,22.60
2017-07-19T05:12:12.529Z,22.60
2017-07-19T05:14:41.472Z,21.90
2017-07-19T05:17:09.621Z,21.90
2017-07-19T05:19:37.786Z,21.60
2017-07-19T05:22:05.994Z,21.70
2017-07-19T05:24:34.153Z,21.80
2017-07-19T05:27:02.318Z,21.80
2017-07-19T05:29:30.476Z,22.30
2017-07-19T05:31:58.652Z,22.70
2017-07-19T05:34:33.980Z,23.20
2017-07-19T05:37:02.187Z,23.40
2017-07-19T05:39:30.633Z,23.70
2017-07-19T05:41:58.785Z,23.90
2017-07-19T05:44:27.706Z,23.90
2017-07-19T05:46:55.988Z,23.90
2017-07-19T05:49:24.141Z,24.30
2017-07-19T05:51:52.394Z,24.50
2017-07-19T05:54:20.599Z,24.40
2017-07-19T05:56:48.858Z,24.80
2017-07-19T05:59:17.784Z,24.90
2017-07-19T06:01:45.985Z,24.90
2017-07-19T06:04:14.142Z,25.00
2017-07-19T06:06:42.313Z,24.90
2017-07-19T06:09:10.488Z,25.40
2017-07-19T06:11:38.663Z,25.40
2017-07-19T06:14:06.840Z,25.40
2017-07-19T06:16:35.010Z,25.40
2017-07-19T06:19:03.224Z,25.20
2017-07-19T06:21:32.159Z,25.50
2017-07-19T06:24:00.347Z,25.50
2017-07-19T06:26:28.535Z,25.30
2017-07-19T06:28:56.703Z,25.80
2017-07-19T06:31:24.879Z,26.30
2017-07-19T06:33:53.038Z,26.40
2017-07-19T06:36:21.231Z,26.30
2017-07-19T06:38:49.422Z,26.70
2017-07-19T06:41:17.661Z,26.80
2017-07-19T06:43:45.843Z,27.00
2017-07-19T06:46:14.002Z,27.00
2017-07-19T06:48:42.165Z,26.90
2017-07-19T06:51:10.442Z,27.00
2017-07-19T06:53:38.633Z,27.70
2017-07-19T06:56:06.797Z,27.40
2017-07-19T06:58:34.962Z,27.50
2017-07-19T07:01:03.131Z,27.60
2017-07-19T07:03:31.393Z,27.30
2017-07-19T07:06:00.303Z,28.00
2017-07-19T07:08:28.480Z,28.00
2017-07-19T07:10:56.649Z,28.50
2017-07-19T07:13:24.825Z,28.30
2017-07-19T07:15:53.008Z,28.10
2017-07-19T07:18:21.202Z,27.60
2017-07-19T07:20:49.354Z,28.20
2017-07-19T07:23:17.562Z,28.10
2017-07-19T07:25:46.620Z,28.20
2017-07-19T07:28:14.802Z,28.20
2017-07-19T07:30:43.049Z,29.10
2017-07-19T07:33:11.248Z,29.30
2017-07-19T07:35:39.530Z,29.40
2017-07-19T07:38:07.708Z,29.60
2017-07-19T07:40:35.873Z,29.30
2017-07-19T07:43:04.037Z,30.10
2017-07-19T07:45:32.201Z,30.30
2017-07-19T07:48:00.367Z,30.20
2017-07-19T07:50:28.546Z,30.10
2017-07-19T07:52:56.716Z,30.10
2017-07-19T07:55:24.908Z,30.40
2017-07-19T07:57:53.060Z,30.30
2017-07-19T08:00:21.202Z,30.60
2017-07-19T08:02:49.574Z,30.10
2017-07-19T08:05:17.733Z,29.40
2017-07-19T08:07:46.688Z,30.10
2017-07-19T08:10:14.865Z,30.10
2017-07-19T08:12:43.052Z,30.40
2017-07-19T08:15:11.197Z,31.00
2017-07-19T08:17:39.351Z,31.60
2017-07-19T08:20:07.653Z,30.80
2017-07-19T08:22:35.802Z,30.50
2017-07-19T08:25:03.956Z,30.80
2017-07-19T08:27:32.149Z,31.20
2017-07-19T08:30:00.297Z,30.70
2017-07-19T08:32:29.230Z,30.70
2017-07-19T08:34:57.449Z,30.70
2017-07-19T08:37:26.383Z,31.30
2017-07-19T08:39:54.548Z,31.30
2017-07-19T08:42:22.758Z,31.70
2017-07-19T08:44:50.967Z,31.90
2017-07-19T08:47:19.093Z,31.40
2017-07-19T08:49:47.284Z,31.80
2017-07-19T08:52:15.441Z,31.20
2017-07-19T08:54:43.706Z,31.40
2017-07-19T08:57:11.896Z,31.50
2017-07-19T08:59:40.057Z,31.10
2017-07-19T09:02:08.221Z,31.80
2017-07-19T09:04:36.409Z,31.60
2017-07-19T09:07:04.587Z,31.70
2017-07-19T09:09:32.751Z,31.80
2017-07-19T09:12:00.917Z,32.00
2017-07-19T09:14:29.098Z,32.00
2017-07-19T09:16:57.242Z,32.40
2017-07-19T09:19:25.422Z,32.20
2017-07-19T09:21:53.580Z,32.00
2017-07-19T09:24:21.749Z,32.00
2017-07-19T09:26:49.907Z,32.10
2017-07-19T09:29:18.850Z,31.70
2017-07-19T09:31:47.025Z,31.70
2017-07-19T09:34:15.176Z,31.40
2017-07-19T09:36:44.461Z,31.90
2017-07-19T09:39:12.625Z,32.10
2017-07-19T09:41:40.839Z,32.40
2017-07-19T09:44:08.986Z,32.10
2017-07-19T09:46:37.178Z,32.00
2017-07-19T09:49:05.338Z,31.90
2017-07-19T09:51:33.566Z,32.10
2017-07-19T09:54:01.728Z,32.30
2017-07-19T09:56:29.869Z,32.20
2017-07-19T09:58:58.028Z,32.20
2017-07-19T10:01:26.382Z,32.50
2017-07-19T10:03:55.336Z,31.80
2017-07-19T10:06:23.498Z,31.70
2017-07-19T10:08:51.786Z,31.90
2017-07-19T10:11:19.956Z,31.80
2017-07-19T10:13:48.120Z,31.90
2017-07-19T10:16:16.286Z,32.00
2017-07-19T10:18:44.429Z,32.10
2017-07-19T10:21:12.622Z,32.00
2017-07-19T10:23:40.788Z,31.90
2017-07-19T10:26:08.957Z,32.00
2017-07-19T10:28:37.145Z,32.00
2017-07-19T10:31:05.331Z,32.10
2017-07-19T10:33:33.496Z,32.20
2017-07-19T10:36:01.651Z,32.10
2017-07-19T10:38:29.867Z,32.20
2017-07-19T10:40:58.094Z,32.00
2017-07-19T10:43:26.301Z,32.10
2017-07-19T10:45:54.457Z,32.40
2017-07-19T10:48:27.450Z,32.50
2017-07-19T10:50:55.622Z,32.60
2017-07-19T10:53:23.788Z,32.50
2017-07-19T10:55:51.970Z,32.30
2017-07-19T10:58:20.120Z,32.70
2017-07-19T11:00:48.334Z,32.70
2017-07-19T11:03:16.481Z,32.50
2017-07-19T11:05:44.622Z,32.50
2017-07-19T11:08:12.826Z,32.90
2017-07-19T11:10:40.998Z,33.00
2017-07-19T11:13:09.161Z,33.30
2017-07-19T11:15:37.549Z,32.70
2017-07-19T11:18:05.701Z,32.90
2017-07-19T11:20:33.850Z,32.80
2017-07-19T11:23:02.790Z,33.00
2017-07-19T11:25:30.953Z,33.00
2017-07-19T11:27:59.117Z,33.20
2017-07-19T11:30:27.327Z,33.00
2017-07-19T11:32:55.475Z,33.20
2017-07-19T11:35:23.622Z,33.20
2017-07-19T11:37:51.789Z,32.90
2017-07-19T11:40:20.011Z,33.00
2017-07-19T11:42:48.281Z,33.00
2017-07-19T11:45:16.449Z,32.80
2017-07-19T11:47:44.628Z,32.60
2017-07-19T11:50:12.788Z,32.70
2017-07-19T11:52:40.937Z,33.00
2017-07-19T11:55:09.104Z,33.20
2017-07-19T11:57:37.248Z,33.10
2017-07-19T12:00:05.398Z,33.00
2017-07-19T12:02:33.722Z,32.90
2017-07-19T12:05:02.642Z,33.10
2017-07-19T12:07:30.802Z,33.10
2017-07-19T12:09:58.970Z,33.20
2017-07-19T12:12:27.154Z,33.00
2017-07-19T12:14:56.263Z,33.10
2017-07-19T12:17:24.415Z,33.10
2017-07-19T12:19:52.609Z,33.10
2017-07-19T12:22:20.752Z,32.90
2017-07-19T12:24:48.909Z,32.90
2017-07-19T12:29:45.992Z,33.00
2017-07-19T12:32:14.185Z,33.30
2017-07-19T12:34:42.353Z,33.90
2017-07-19T12:37:10.511Z,33.90
2017-07-19T12:39:38.706Z,33.60
2017-07-19T12:42:06.906Z,33.80
2017-07-19T12:44:35.057Z,33.90
2017-07-19T12:47:03.248Z,33.80
2017-07-19T12:49:31.407Z,33.80
2017-07-19T12:51:59.569Z,33.80
2017-07-19T12:54:27.760Z,33.80
2017-07-19T12:56:55.947Z,34.10
2017-07-19T12:59:24.146Z,33.90
2017-07-19T13:01:52.296Z,33.60
2017-07-19T13:04:20.445Z,33.60
2017-07-19T13:06:48.642Z,33.60
2017-07-19T13:09:16.803Z,33.60
2017-07-19T13:11:44.966Z,33.80
2017-07-19T13:14:13.128Z,34.10
2017-07-19T13:16:41.270Z,34.00
2017-07-19T13:19:09.463Z,33.90
2017-07-19T13:21:37.616Z,33.80
2017-07-19T13:24:06.710Z,34.20
2017-07-19T13:26:34.886Z,34.20
2017-07-19T13:29:03.809Z,34.40
2017-07-19T13:31:31.990Z,34.40
2017-07-19T13:34:00.174Z,34.30
2017-07-19T13:36:28.497Z,34.10
2017-07-19T13:38:56.652Z,34.30
2017-07-19T13:41:25.597Z,34.30
2017-07-19T13:43:53.889Z,34.30
2017-07-19T13:46:22.041Z,34.20
2017-07-19T13:48:50.185Z,34.30
2017-07-19T13:51:18.391Z,34.20
2017-07-19T13:53:46.553Z,34.30
2017-07-19T13:56:14.712Z,34.30
2017-07-19T13:58:42.862Z,34.60
2017-07-19T14:01:11.810Z,34.20
2017-07-19T14:03:40.002Z,34.20
2017-07-19T14:06:08.177Z,34.20
2017-07-19T14:08:36.386Z,34.40
2017-07-19T14:11:05.339Z,34.40
2017-07-19T14:13:33.491Z,34.30
2017-07-19T14:16:01.625Z,34.30
2017-07-19T14:18:29.812Z,34.20
2017-07-19T14:20:57.961Z,34.30
2017-07-19T14:23:26.913Z,34.20
2017-07-19T14:25:55.071Z,34.20
2017-07-19T14:28:23.217Z,34.30
2017-07-19T14:30:51.381Z,34.10
2017-07-19T14:33:20.357Z,34.30
2017-07-19T14:35:48.499Z,34.30
2017-07-19T14:38:16.659Z,34.70
2017-07-19T14:40:44.865Z,34.50
2017-07-19T14:43:13.018Z,34.70
2017-07-19T14:45:41.172Z,34.90
2017-07-19T14:48:09.375Z,34.90
2017-07-19T14:50:37.530Z,34.90
2017-07-19T14:53:05.699Z,34.90
2017-07-19T14:55:33.873Z,34.60
2017-07-19T14:58:02.025Z,34.60
2017-07-19T15:00:30.169Z,34.50
2017-07-19T15:02:59.113Z,33.50
2017-07-19T15:05:27.298Z,33.50
2017-07-19T15:07:55.450Z,33.40
2017-07-19T15:10:23.598Z,33.60
2017-07-19T15:12:51.777Z,33.30
2017-07-19T15:15:20.097Z,33.20
2017-07-19T15:17:48.266Z,33.20
2017-07-19T15:20:16.459Z,33.30
2017-07-19T15:22:44.637Z,33.40
2017-07-19T15:25:13.556Z,34.40
2017-07-19T15:27:41.746Z,34.40
2017-07-19T15:30:09.883Z,34.70
2017-07-19T15:32:38.807Z,33.70
2017-07-19T15:35:06.980Z,33.70
2017-07-19T15:37:35.163Z,33.70
2017-07-19T15:40:03.298Z,33.80
2017-07-19T15:42:31.470Z,33.20
2017-07-19T15:44:59.606Z,33.30
2017-07-19T15:47:27.803Z,33.30
2017-07-19T15:49:56.040Z,33.40
2017-07-19T15:52:24.215Z,33.40
2017-07-19T15:54:52.394Z,33.20
2017-07-19T15:57:20.754Z,33.10
2017-07-19T15:59:48.901Z,33.00
2017-07-19T16:02:17.038Z,33.00
2017-07-19T16:04:45.223Z,32.70
2017-07-19T16:07:14.138Z,32.70
2017-07-19T16:09:42.288Z,32.70
2017-07-19T16:12:11.247Z,32.40
2017-07-19T16:14:39.367Z,32.40
2017-07-19T16:17:07.550Z,32.30
2017-07-19T16:19:35.712Z,32.10
2017-07-19T16:22:03.858Z,32.00
2017-07-19T16:24:32.823Z,31.70
2017-07-19T16:27:00.976Z,31.70
2017-07-19T16:29:29.166Z,31.30
2017-07-19T16:31:57.347Z,31.20
2017-07-19T16:34:25.595Z,30.90
2017-07-19T16:36:53.790Z,30.70
2017-07-19T16:39:21.966Z,30.60
2017-07-19T16:41:50.115Z,30.50
2017-07-19T16:44:18.341Z,30.30
2017-07-19T16:46:46.491Z,30.00
2017-07-19T16:49:14.663Z,30.00
2017-07-19T16:51:42.862Z,29.90
2017-07-19T16:54:11.775Z,29.90
2017-07-19T16:56:39.993Z,29.80
2017-07-19T16:59:08.155Z,29.70
2017-07-19T17:01:36.312Z,29.40
2017-07-19T17:04:04.469Z,28.80
2017-07-19T17:09:35.601Z,28.40
2017-07-19T17:14:38.791Z,27.80
2017-07-19T17:19:42.009Z,27.40
2017-07-19T17:24:45.213Z,26.90
2017-07-19T17:29:48.435Z,26.70
2017-07-19T17:34:51.636Z,26.70
2017-07-19T17:39:54.876Z,26.70
2017-07-19T17:44:58.869Z,26.70
2017-07-19T17:50:02.106Z,26.70
2017-07-19T17:55:05.425Z,26.70
2017-07-19T18:00:09.414Z,26.90
2017-07-19T18:05:12.626Z,26.90
2017-07-19T18:10:15.821Z,27.00
2017-07-19T18:15:19.030Z,27.30
2017-07-19T18:20:22.234Z,27.40
2017-07-19T18:25:25.427Z,27.40
2017-07-19T18:30:28.640Z,27.40
2017-07-19T18:35:31.890Z,27.20
2017-07-19T18:40:35.863Z,26.50
2017-07-19T18:45:39.074Z,26.50
2017-07-19T18:50:42.315Z,26.40
2017-07-19T18:55:45.526Z,26.40
2017-07-19T19:00:48.726Z,26.30
2017-07-19T19:05:51.926Z,26.20
2017-07-19T19:10:55.113Z,25.90
2017-07-19T19:15:58.309Z,25.80
2017-07-19T19:21:01.522Z,25.40
2017-07-19T19:26:04.724Z,25.10
2017-07-19T19:31:07.930Z,24.80
2017-07-19T19:36:11.114Z,24.70
2017-07-19T19:41:14.298Z,24.40
2017-07-19T19:46:18.251Z,24.00
2017-07-19T19:51:21.362Z,23.90
2017-07-19T19:56:24.543Z,23.70
2017-07-19T20:01:27.740Z,23.60
2017-07-19T20:06:31.682Z,23.30
2017-07-19T20:11:34.850Z,23.20
2017-07-19T20:16:38.015Z,23.00
2017-07-19T20:21:41.137Z,22.80
2017-07-19T20:26:44.315Z,22.60
2017-07-19T20:31:47.468Z,22.50
2017-07-19T20:36:50.700Z,22.40
2017-07-19T20:41:54.707Z,21.90
2017-07-19T20:46:58.023Z,21.90
2017-07-19T20:52:01.213Z,22.00
2017-07-19T20:57:04.585Z,22.00
2017-07-19T21:02:07.794Z,21.90
2017-07-19T21:07:11.010Z,21.90
2017-07-19T21:12:14.218Z,21.80
2017-07-19T21:17:17.402Z,21.70
2017-07-19T21:22:20.601Z,21.70
2017-07-19T21:27:24.635Z,21.70
2017-07-19T21:32:27.880Z,21.70
2017-07-19T21:37:31.062Z,21.80
2017-07-19T21:42:34.265Z,21.70
2017-07-19T21:47:37.453Z,21.60
2017-07-19T21:52:40.648Z,21.80
2017-07-19T21:57:45.081Z,21.50
2017-07-19T22:02:48.247Z,21.40
2017-07-19T22:07:51.465Z,21.50
2017-07-19T22:12:54.716Z,21.30
2017-07-19T22:17:58.692Z,21.10
2017-07-19T22:23:01.877Z,21.10
2017-07-19T22:28:05.085Z,21.00
2017-07-19T22:33:08.299Z,20.80
2017-07-19T22:38:11.491Z,20.50
2017-07-19T22:43:14.688Z,20.40
2017-07-19T22:48:17.893Z,20.50
2017-07-19T22:53:21.258Z,20.60
2017-07-19T22:58:24.477Z,20.50
2017-07-19T23:03:27.695Z,20.80
2017-07-19T23:08:31.655Z,20.90
2017-07-19T23:13:34.875Z,21.00
2017-07-19T23:18:38.054Z,21.00
2017-07-19T23:23:41.290Z,21.00
2017-07-19T23:28:44.474Z,20.90
2017-07-19T23:33:47.677Z,20.90
2017-07-19T23:38:50.900Z,20.80
2017-07-19T23:43:54.101Z,20.70
2017-07-19T23:48:57.324Z,20.60
2017-07-19T23:54:00.512Z,20.70
2017-07-19T23:59:03.709Z,20.70
